createdAt,value
2022-11-06T00:00:05.389Z,0
2022-11-06T00:01:06.295Z,0
2022-11-06T00:02:07.256Z,0
2022-11-06T00:03:07.757Z,0
2022-11-06T00:04:08.001Z,0
2022-11-06T00:05:08.191Z,0
2022-11-06T00:06:09.393Z,0
2022-11-06T00:07:09.734Z,0
2022-11-06T00:08:11.202Z,0
2022-11-06T00:09:11.410Z,0
2022-11-06T00:10:12.017Z,0
2022-11-06T00:11:13.199Z,0
2022-11-06T00:12:13.687Z,0
2022-11-06T00:13:13.601Z,0
2022-11-06T00:14:14.223Z,0
2022-11-06T00:15:14.699Z,0
2022-11-06T00:16:14.883Z,0
2022-11-06T00:17:15.066Z,0
2022-11-06T00:18:15.711Z,0
2022-11-06T00:19:15.665Z,0
2022-11-06T00:20:16.837Z,0
2022-11-06T00:21:17.754Z,0
2022-11-06T00:22:18.298Z,0
2022-11-06T00:23:18.083Z,0
2022-11-06T00:24:18.692Z,0
2022-11-06T00:25:19.339Z,0
2022-11-06T00:26:19.672Z,0
2022-11-06T00:27:20.866Z,0
2022-11-06T00:28:22.057Z,0
2022-11-06T00:29:21.363Z,0
2022-11-06T00:30:21.547Z,0
2022-11-06T00:31:22.749Z,0
2022-11-06T00:32:22.933Z,0
2022-11-06T00:33:23.543Z,0
2022-11-06T00:34:23.476Z,0
2022-11-06T00:35:24.090Z,0
2022-11-06T00:36:25.374Z,0
2022-11-06T00:37:25.672Z,0
2022-11-06T00:38:26.406Z,0
2022-11-06T00:39:26.425Z,0
2022-11-06T00:40:27.606Z,0
2022-11-06T00:41:27.571Z,0
2022-11-06T00:42:27.913Z,0
2022-11-06T00:43:28.823Z,0
2022-11-06T00:44:29.729Z,0
2022-11-06T00:45:30.355Z,0
2022-11-06T00:46:30.659Z,0
2022-11-06T00:47:31.592Z,0
2022-11-06T00:48:32.201Z,0
2022-11-06T00:49:33.507Z,0
2022-11-06T00:50:33.773Z,0
2022-11-06T00:51:33.774Z,0
2022-11-06T00:52:34.263Z,0
2022-11-06T00:53:34.229Z,0
2022-11-06T00:54:35.408Z,0
2022-11-06T00:55:35.613Z,0
2022-11-06T00:56:35.251Z,0
2022-11-06T00:57:36.158Z,0
2022-11-06T00:58:36.346Z,0
2022-11-06T00:59:37.067Z,0
2022-11-06T01:00:36.958Z,0
2022-11-06T01:01:38.502Z,0
2022-11-06T01:02:39.619Z,0
2022-11-06T01:03:39.370Z,0
2022-11-06T01:04:39.891Z,0
2022-11-06T01:05:39.505Z,0
2022-11-06T01:06:41.048Z,0
2022-11-06T01:07:40.970Z,0
2022-11-06T01:08:41.178Z,0
2022-11-06T01:09:41.019Z,0
2022-11-06T01:10:42.503Z,0
2022-11-06T01:12:20.615Z,0
2022-11-06T01:12:42.829Z,0
2022-11-06T01:13:43.009Z,0
2022-11-06T01:14:43.920Z,0
2022-11-06T01:15:44.209Z,0
2022-11-06T01:16:43.814Z,0
2022-11-06T01:17:44.994Z,0
2022-11-06T01:18:45.181Z,0
2022-11-06T01:19:46.190Z,0
2022-11-06T01:20:46.655Z,0
2022-11-06T01:21:46.872Z,0
2022-11-06T01:22:47.890Z,0
2022-11-06T01:23:48.384Z,0
2022-11-06T01:24:49.008Z,0
2022-11-06T01:25:50.100Z,0
2022-11-06T01:27:39.860Z,0
2022-11-06T01:27:56.767Z,0
2022-11-06T01:28:57.951Z,0
2022-11-06T01:29:58.973Z,0
2022-11-06T01:31:00.149Z,0
2022-11-06T01:32:00.329Z,0
2022-11-06T01:33:00.645Z,0
2022-11-06T01:34:01.277Z,0
2022-11-06T01:35:02.209Z,0
2022-11-06T01:36:03.395Z,0
2022-11-06T01:37:03.292Z,0
2022-11-06T01:38:03.771Z,0
2022-11-06T01:39:03.973Z,0
2022-11-06T01:40:04.668Z,0
2022-11-06T01:41:05.280Z,0
2022-11-06T01:42:06.462Z,0
2022-11-06T01:43:07.376Z,0
2022-11-06T01:44:09.635Z,0
2022-11-06T01:45:08.729Z,0
2022-11-06T01:46:09.932Z,0
2022-11-06T01:47:09.835Z,0
2022-11-06T01:48:11.294Z,0
2022-11-06T01:49:11.882Z,0
2022-11-06T01:50:12.792Z,0
2022-11-06T01:51:12.979Z,0
2022-11-06T01:52:13.898Z,0
2022-11-06T01:53:14.830Z,0
2022-11-06T01:54:14.756Z,0
2022-11-06T01:55:15.367Z,0
2022-11-06T01:56:15.298Z,0
2022-11-06T01:57:16.203Z,0
2022-11-06T01:58:17.719Z,0
2022-11-06T01:59:17.623Z,0
2022-11-06T02:00:18.046Z,0
2022-11-06T02:01:19.062Z,0
2022-11-06T02:02:20.249Z,0
2022-11-06T02:03:20.021Z,0
2022-11-06T02:04:20.518Z,0
2022-11-06T02:05:20.442Z,0
2022-11-06T02:06:20.919Z,0
2022-11-06T02:07:20.820Z,0
2022-11-06T02:08:22.206Z,0
2022-11-06T02:09:21.837Z,0
2022-11-06T02:10:22.855Z,0
2022-11-06T02:11:23.757Z,0
2022-11-06T02:12:24.966Z,0
2022-11-06T02:13:24.573Z,0
2022-11-06T02:14:25.458Z,0
2022-11-06T02:15:25.783Z,0
2022-11-06T02:16:26.817Z,0
2022-11-06T02:17:27.716Z,0
2022-11-06T02:18:28.326Z,0
2022-11-06T02:19:29.799Z,0
2022-11-06T02:20:29.886Z,0
2022-11-06T02:21:29.765Z,0
2022-11-06T02:22:30.755Z,0
2022-11-06T02:23:31.243Z,0
2022-11-06T02:24:31.148Z,0
2022-11-06T02:25:32.347Z,0
2022-11-06T02:26:31.971Z,0
2022-11-06T02:27:33.453Z,0
2022-11-06T02:28:33.361Z,0
2022-11-06T02:29:34.249Z,0
2022-11-06T02:30:34.235Z,0
2022-11-06T02:31:34.828Z,0
2022-11-06T02:32:35.754Z,0
2022-11-06T02:33:36.931Z,0
2022-11-06T02:34:36.813Z,0
2022-11-06T02:35:37.754Z,0
2022-11-06T02:36:37.940Z,0
2022-11-06T02:37:39.152Z,0
2022-11-06T02:38:39.516Z,0
2022-11-06T02:39:40.816Z,0
2022-11-06T02:40:41.263Z,0
2022-11-06T02:41:41.863Z,0
2022-11-06T02:42:42.474Z,0
2022-11-06T02:43:42.958Z,0
2022-11-06T02:44:43.443Z,0
2022-11-06T02:45:43.627Z,0
2022-11-06T02:46:44.539Z,0
2022-11-06T02:47:44.721Z,0
2022-11-06T02:48:45.058Z,0
2022-11-06T02:49:45.964Z,0
2022-11-06T02:50:46.418Z,0
2022-11-06T02:51:46.885Z,0
2022-11-06T02:52:47.507Z,0
2022-11-06T02:53:48.408Z,0
2022-11-06T02:54:48.689Z,0
2022-11-06T02:55:49.318Z,0
2022-11-06T02:56:49.649Z,0
2022-11-06T02:57:50.257Z,0
2022-11-06T02:58:54.895Z,0
2022-11-06T02:59:51.376Z,0
2022-11-06T03:00:51.650Z,0
2022-11-06T03:01:51.937Z,0
2022-11-06T03:02:52.817Z,0
2022-11-06T03:03:51.363Z,0
2022-11-06T03:04:52.269Z,0
2022-11-06T03:05:53.512Z,0
2022-11-06T03:06:54.125Z,0
2022-11-06T03:07:54.814Z,0
2022-11-06T03:08:56.308Z,0
2022-11-06T03:09:56.534Z,0
2022-11-06T03:10:56.335Z,0
2022-11-06T03:11:57.244Z,0
2022-11-06T03:12:57.874Z,0
2022-11-06T03:13:57.907Z,0
2022-11-06T03:14:58.811Z,0
2022-11-06T03:15:59.117Z,0
2022-11-06T03:17:00.421Z,0
2022-11-06T03:18:00.335Z,0
2022-11-06T03:19:01.534Z,0
2022-11-06T03:20:01.742Z,0
2022-11-06T03:21:03.057Z,0
2022-11-06T03:22:03.002Z,0
2022-11-06T03:23:03.894Z,0
2022-11-06T03:24:04.231Z,0
2022-11-06T03:25:05.591Z,0
2022-11-06T03:26:05.924Z,0
2022-11-06T03:27:06.831Z,0
2022-11-06T03:28:06.756Z,0
2022-11-06T03:29:07.156Z,0
2022-11-06T03:30:08.342Z,0
2022-11-06T03:31:07.230Z,0
2022-11-06T03:32:07.562Z,0
2022-11-06T03:33:08.775Z,0
2022-11-06T03:34:08.686Z,0
2022-11-06T03:35:09.590Z,0
2022-11-06T03:36:10.071Z,0
2022-11-06T03:37:10.245Z,0
2022-11-06T03:38:11.605Z,0
2022-11-06T03:39:11.877Z,0
2022-11-06T03:40:11.486Z,0
2022-11-06T03:41:12.168Z,0
2022-11-06T03:42:12.351Z,0
2022-11-06T03:43:13.545Z,0
2022-11-06T03:44:14.035Z,0
2022-11-06T03:45:14.213Z,0
2022-11-06T03:46:15.140Z,0
2022-11-06T03:47:15.028Z,0
2022-11-06T03:48:17.149Z,0
2022-11-06T03:49:17.055Z,0
2022-11-06T03:50:17.681Z,0
2022-11-06T03:51:17.873Z,0
2022-11-06T03:52:19.115Z,0
2022-11-06T03:53:19.313Z,0
2022-11-06T03:54:20.236Z,0
2022-11-06T03:55:20.456Z,0
2022-11-06T03:56:21.055Z,0
2022-11-06T03:57:22.343Z,0
2022-11-06T03:58:23.225Z,0
2022-11-06T03:59:23.122Z,0
2022-11-06T04:00:23.302Z,0
2022-11-06T04:01:24.513Z,0
2022-11-06T04:02:25.421Z,0
2022-11-06T04:03:25.049Z,0
2022-11-06T04:04:26.228Z,0
2022-11-06T04:05:26.412Z,0
2022-11-06T04:06:26.472Z,0
2022-11-06T04:07:27.698Z,0
2022-11-06T04:08:28.605Z,0
2022-11-06T04:09:29.838Z,0
2022-11-06T04:10:29.449Z,0
2022-11-06T04:11:29.856Z,0
2022-11-06T04:12:29.741Z,0
2022-11-06T04:13:30.346Z,0
2022-11-06T04:14:31.232Z,0
2022-11-06T04:15:32.141Z,0
2022-11-06T04:16:32.544Z,0
2022-11-06T04:17:33.554Z,0
2022-11-06T04:18:33.751Z,0
2022-11-06T04:19:34.234Z,0
2022-11-06T04:20:34.119Z,0
2022-11-06T04:21:35.071Z,0
2022-11-06T04:22:35.544Z,0
2022-11-06T04:23:37.643Z,0
2022-11-06T04:24:37.030Z,0
2022-11-06T04:25:37.387Z,0
2022-11-06T04:26:37.861Z,0
2022-11-06T04:27:37.465Z,0
2022-11-06T04:28:38.650Z,0
2022-11-06T04:29:38.535Z,0
2022-11-06T04:30:39.444Z,0
2022-11-06T04:31:39.722Z,0
2022-11-06T04:32:40.609Z,0
2022-11-06T04:33:41.238Z,0
2022-11-06T04:34:41.887Z,0
2022-11-06T04:35:43.094Z,0
2022-11-06T04:36:44.049Z,0
2022-11-06T04:37:43.678Z,0
2022-11-06T04:38:45.174Z,0
2022-11-06T04:39:45.181Z,0
2022-11-06T04:40:45.395Z,0
2022-11-06T04:41:46.358Z,0
2022-11-06T04:42:46.256Z,0
2022-11-06T04:43:47.461Z,0
2022-11-06T04:44:48.675Z,0
2022-11-06T04:45:48.861Z,0
2022-11-06T04:46:49.046Z,0
2022-11-06T04:47:49.647Z,0
2022-11-06T04:48:49.551Z,0
2022-11-06T04:49:50.736Z,0
2022-11-06T04:50:51.668Z,0
2022-11-06T04:51:52.923Z,0
2022-11-06T04:52:53.092Z,0
2022-11-06T04:53:53.711Z,0
2022-11-06T04:54:54.210Z,0
2022-11-06T04:55:54.413Z,0
2022-11-06T04:56:57.930Z,0
2022-11-06T04:57:54.830Z,0
2022-11-06T04:58:55.736Z,0
2022-11-06T04:59:56.647Z,0
2022-11-06T05:00:56.815Z,0
2022-11-06T05:01:57.998Z,0
2022-11-06T05:02:58.279Z,0
2022-11-06T05:03:58.608Z,0
2022-11-06T05:04:59.199Z,0
2022-11-06T05:05:59.528Z,0
2022-11-06T05:07:00.748Z,0
2022-11-06T05:08:00.915Z,0
2022-11-06T05:09:01.898Z,0
2022-11-06T05:10:02.109Z,0
2022-11-06T05:11:02.385Z,0
2022-11-06T05:12:02.835Z,0
2022-11-06T05:13:04.313Z,0
2022-11-06T05:14:05.212Z,0
2022-11-06T05:15:05.414Z,0
2022-11-06T05:16:06.320Z,0
2022-11-06T05:17:07.210Z,0
2022-11-06T05:18:07.489Z,0
2022-11-06T05:19:07.449Z,0
2022-11-06T05:20:08.062Z,0
2022-11-06T05:21:08.690Z,0
2022-11-06T05:22:10.124Z,0
2022-11-06T05:23:10.366Z,0
2022-11-06T05:24:11.259Z,0
2022-11-06T05:25:11.750Z,0
2022-11-06T05:26:11.964Z,0
2022-11-06T05:27:11.867Z,0
2022-11-06T05:28:13.151Z,0
2022-11-06T05:29:13.197Z,0
2022-11-06T05:30:13.386Z,0
2022-11-06T05:31:13.992Z,0
2022-11-06T05:32:15.073Z,0
2022-11-06T05:33:15.684Z,0
2022-11-06T05:34:16.314Z,0
2022-11-06T05:35:16.198Z,0
2022-11-06T05:36:17.397Z,0
2022-11-06T05:37:17.914Z,0
2022-11-06T05:38:18.895Z,0
2022-11-06T05:39:18.830Z,0
2022-11-06T05:40:20.149Z,0
2022-11-06T05:41:19.943Z,0
2022-11-06T05:42:21.382Z,4
2022-11-06T05:43:21.564Z,4
2022-11-06T05:44:21.774Z,0
2022-11-06T05:45:22.683Z,4
2022-11-06T05:46:55.712Z,4
2022-11-06T05:47:24.200Z,4
2022-11-06T05:48:23.867Z,4
2022-11-06T05:49:25.057Z,4
2022-11-06T05:50:25.536Z,8
2022-11-06T05:51:25.439Z,8
2022-11-06T05:52:26.502Z,8
2022-11-06T05:53:26.967Z,12
2022-11-06T05:54:27.253Z,16
2022-11-06T05:55:27.457Z,12
2022-11-06T05:56:27.673Z,16
2022-11-06T05:57:28.576Z,20
2022-11-06T05:58:28.483Z,24
2022-11-06T05:59:29.097Z,24
2022-11-06T06:00:29.987Z,28
2022-11-06T06:01:31.490Z,32
2022-11-06T06:02:31.272Z,32
2022-11-06T06:03:31.211Z,40
2022-11-06T06:04:31.569Z,44
2022-11-06T06:05:32.781Z,44
2022-11-06T06:06:32.958Z,48
2022-11-06T06:07:33.618Z,56
2022-11-06T06:08:34.086Z,56
2022-11-06T06:09:33.711Z,64
2022-11-06T06:10:34.909Z,68
2022-11-06T06:11:35.122Z,76
2022-11-06T06:12:36.394Z,80
2022-11-06T06:13:36.301Z,84
2022-11-06T06:14:36.922Z,92
2022-11-06T06:15:37.346Z,96
2022-11-06T06:16:37.536Z,104
2022-11-06T06:17:37.725Z,104
2022-11-06T06:18:38.459Z,112
2022-11-06T06:19:38.780Z,120
2022-11-06T06:20:39.964Z,128
2022-11-06T06:21:40.568Z,136
2022-11-06T06:22:41.701Z,140
2022-11-06T06:23:41.575Z,148
2022-11-06T06:24:42.567Z,152
2022-11-06T06:25:42.652Z,160
2022-11-06T06:26:43.247Z,168
2022-11-06T06:27:44.430Z,208
2022-11-06T06:28:44.907Z,248
2022-11-06T06:29:45.114Z,256
2022-11-06T06:30:45.024Z,216
2022-11-06T06:31:45.395Z,208
2022-11-06T06:32:46.284Z,224
2022-11-06T06:33:47.465Z,244
2022-11-06T06:34:47.957Z,268
2022-11-06T06:35:47.856Z,288
2022-11-06T06:36:49.049Z,332
2022-11-06T06:37:50.379Z,324
2022-11-06T06:38:50.292Z,320
2022-11-06T06:39:50.629Z,356
2022-11-06T06:40:52.176Z,392
2022-11-06T06:41:52.096Z,360
2022-11-06T06:42:52.997Z,356
2022-11-06T06:43:54.179Z,392
2022-11-06T06:44:54.683Z,456
2022-11-06T06:45:55.296Z,412
2022-11-06T06:46:56.202Z,344
2022-11-06T06:47:55.814Z,344
2022-11-06T06:48:56.715Z,352
2022-11-06T06:49:57.617Z,352
2022-11-06T06:50:58.607Z,360
2022-11-06T06:51:58.809Z,400
2022-11-06T06:52:59.970Z,432
2022-11-06T06:54:01.160Z,544
2022-11-06T06:55:01.657Z,924
2022-11-06T06:56:01.976Z,1312
2022-11-06T06:57:02.203Z,1244
2022-11-06T06:58:03.133Z,1028
2022-11-06T06:59:03.821Z,896
2022-11-06T07:00:04.003Z,812
2022-11-06T07:01:04.709Z,1260
2022-11-06T07:02:05.624Z,1800
2022-11-06T07:03:05.496Z,1628
2022-11-06T07:04:10.362Z,1280
2022-11-06T07:05:06.553Z,1216
2022-11-06T07:06:06.752Z,1200
2022-11-06T07:07:06.646Z,1308
2022-11-06T07:08:08.164Z,1504
2022-11-06T07:09:08.379Z,2016
2022-11-06T07:10:09.869Z,2936
2022-11-06T07:11:09.515Z,3444
2022-11-06T07:12:10.733Z,3176
2022-11-06T07:13:11.936Z,3016
2022-11-06T07:14:11.783Z,2952
2022-11-06T07:15:11.998Z,2724
2022-11-06T07:16:12.911Z,2548
2022-11-06T07:17:14.122Z,2220
2022-11-06T07:18:14.634Z,1988
2022-11-06T07:19:15.332Z,2332
2022-11-06T07:20:15.820Z,2836
2022-11-06T07:21:16.073Z,2660
2022-11-06T07:22:16.693Z,2260
2022-11-06T07:23:17.565Z,3200
2022-11-06T07:24:17.740Z,3312
2022-11-06T07:25:18.360Z,2712
2022-11-06T07:26:18.664Z,3492
2022-11-06T07:27:19.173Z,3788
2022-11-06T07:28:20.085Z,4040
2022-11-06T07:29:20.028Z,4236
2022-11-06T07:30:20.511Z,3676
2022-11-06T07:31:20.404Z,3496
2022-11-06T07:32:20.894Z,4236
2022-11-06T07:33:21.251Z,4264
2022-11-06T07:34:21.739Z,4016
2022-11-06T07:35:21.673Z,4860
2022-11-06T07:36:22.583Z,4696
2022-11-06T07:37:22.801Z,3740
2022-11-06T07:38:23.728Z,3620
2022-11-06T07:39:23.906Z,3148
2022-11-06T07:40:25.215Z,3448
2022-11-06T07:41:25.116Z,3372
2022-11-06T07:42:25.129Z,2324
2022-11-06T07:43:26.424Z,2156
2022-11-06T07:44:26.354Z,2592
2022-11-06T07:45:27.547Z,3508
2022-11-06T07:46:27.738Z,4544
2022-11-06T07:47:27.650Z,5316
2022-11-06T07:48:28.512Z,3948
2022-11-06T07:49:28.728Z,3316
2022-11-06T07:50:29.217Z,4932
2022-11-06T07:51:28.831Z,7516
2022-11-06T07:52:29.171Z,7216
2022-11-06T07:53:29.668Z,6168
2022-11-06T07:54:30.145Z,4988
2022-11-06T07:55:30.858Z,3624
2022-11-06T07:56:31.789Z,2856
2022-11-06T07:57:32.804Z,2772
2022-11-06T07:58:33.732Z,2972
2022-11-06T07:59:34.078Z,3248
2022-11-06T08:00:35.770Z,3092
2022-11-06T08:01:36.597Z,2576
2022-11-06T08:02:37.737Z,2088
2022-11-06T08:03:37.263Z,1728
2022-11-06T08:04:38.376Z,1536
2022-11-06T08:05:38.990Z,1500
2022-11-06T08:06:39.886Z,1432
2022-11-06T08:07:40.507Z,1472
2022-11-06T08:08:41.164Z,1752
2022-11-06T08:09:42.353Z,1884
2022-11-06T08:10:43.260Z,1940
2022-11-06T08:11:44.186Z,1808
2022-11-06T08:12:44.117Z,1748
2022-11-06T08:13:45.176Z,1924
2022-11-06T08:14:52.493Z,2384
2022-11-06T08:15:46.682Z,2376
2022-11-06T08:16:46.999Z,2212
2022-11-06T08:17:47.932Z,2168
2022-11-06T08:18:48.537Z,2352
2022-11-06T08:19:49.848Z,2884
2022-11-06T08:20:50.471Z,2908
2022-11-06T08:21:50.383Z,2180
2022-11-06T08:22:51.877Z,2144
2022-11-06T08:23:52.618Z,2292
2022-11-06T08:24:53.521Z,2004
2022-11-06T08:25:53.722Z,1852
2022-11-06T08:26:54.932Z,2000
2022-11-06T08:27:54.871Z,2108
2022-11-06T08:28:55.505Z,2244
2022-11-06T08:29:55.432Z,2228
2022-11-06T08:30:56.373Z,1892
2022-11-06T08:31:57.315Z,1592
2022-11-06T08:32:57.354Z,1512
2022-11-06T08:33:58.680Z,1508
2022-11-06T08:34:59.302Z,1480
2022-11-06T08:36:00.514Z,1492
2022-11-06T08:37:01.279Z,1528
2022-11-06T08:38:01.490Z,1516
2022-11-06T08:39:02.465Z,1520
2022-11-06T08:40:02.666Z,1552
2022-11-06T08:41:04.960Z,1568
2022-11-06T08:42:03.893Z,1644
2022-11-06T08:43:04.808Z,1780
2022-11-06T08:44:04.534Z,1836
2022-11-06T08:45:05.752Z,1828
2022-11-06T08:46:06.379Z,1868
2022-11-06T08:47:06.286Z,1844
2022-11-06T08:48:07.482Z,1852
2022-11-06T08:49:08.099Z,1836
2022-11-06T08:50:09.014Z,1836
2022-11-06T08:51:09.225Z,1860
2022-11-06T08:52:10.120Z,1924
2022-11-06T08:53:11.085Z,1952
2022-11-06T08:54:11.297Z,1968
2022-11-06T08:55:11.214Z,2204
2022-11-06T08:56:12.833Z,2492
2022-11-06T08:57:13.230Z,2472
2022-11-06T08:58:13.177Z,2136
2022-11-06T08:59:14.084Z,2216
2022-11-06T09:00:14.591Z,2360
2022-11-06T09:01:14.207Z,2428
2022-11-06T09:02:15.799Z,2196
2022-11-06T09:03:17.512Z,1900
2022-11-06T09:04:16.397Z,1956
2022-11-06T09:05:16.314Z,1960
2022-11-06T09:06:17.206Z,2060
2022-11-06T09:07:17.096Z,2324
2022-11-06T09:08:18.586Z,2976
2022-11-06T09:09:18.522Z,3784
2022-11-06T09:10:18.709Z,4416
2022-11-06T09:11:19.964Z,4060
2022-11-06T09:12:20.171Z,3436
2022-11-06T09:13:20.955Z,3020
2022-11-06T09:14:20.432Z,3152
2022-11-06T09:15:21.628Z,3148
2022-11-06T09:16:26.699Z,3604
2022-11-06T09:17:23.317Z,4096
2022-11-06T09:18:24.235Z,3508
2022-11-06T09:19:25.429Z,3228
2022-11-06T09:20:25.131Z,3124
2022-11-06T09:21:26.349Z,2780
2022-11-06T09:22:26.839Z,2864
2022-11-06T09:23:28.352Z,3372
2022-11-06T09:25:08.692Z,4700
2022-11-06T09:25:28.619Z,4240
2022-11-06T09:26:29.246Z,4196
2022-11-06T09:27:30.162Z,4104
2022-11-06T09:28:30.428Z,4500
2022-11-06T09:29:31.051Z,5540
2022-11-06T09:30:31.960Z,5744
2022-11-06T09:31:33.172Z,5336
2022-11-06T09:32:33.109Z,6052
2022-11-06T09:33:34.029Z,6188
2022-11-06T09:34:34.327Z,5796
2022-11-06T09:35:34.519Z,5756
2022-11-06T09:36:35.138Z,6084
2022-11-06T09:37:35.497Z,6600
2022-11-06T09:38:35.839Z,7612
2022-11-06T09:39:36.763Z,7096
2022-11-06T09:40:37.720Z,5976
2022-11-06T09:41:37.933Z,5188
2022-11-06T09:42:38.855Z,4884
2022-11-06T09:44:13.698Z,4448
2022-11-06T09:45:01.095Z,4972
2022-11-06T09:46:06.103Z,5184
2022-11-06T09:47:03.315Z,4544
2022-11-06T09:48:03.809Z,5648
2022-11-06T09:49:03.709Z,6656
2022-11-06T09:50:04.651Z,6704
2022-11-06T09:51:06.150Z,6780
2022-11-06T09:52:07.209Z,6280
2022-11-06T09:53:19.733Z,7064
2022-11-06T09:54:07.917Z,6864
2022-11-06T09:55:11.297Z,5636
2022-11-06T09:56:08.229Z,5544
2022-11-06T09:57:08.449Z,4968
2022-11-06T09:58:08.099Z,5332
2022-11-06T09:59:08.788Z,5128
2022-11-06T10:00:08.691Z,5128
2022-11-06T10:01:09.542Z,5832
2022-11-06T10:02:10.431Z,6100
2022-11-06T10:03:10.370Z,6888
2022-11-06T10:04:11.475Z,7636
2022-11-06T10:05:12.212Z,6872
2022-11-06T10:06:13.703Z,7836
2022-11-06T10:07:13.904Z,6816
2022-11-06T10:08:14.853Z,7596
2022-11-06T10:09:14.755Z,7872
2022-11-06T10:10:15.970Z,8256
2022-11-06T10:11:16.633Z,8920
2022-11-06T10:12:18.130Z,11748
2022-11-06T10:13:23.623Z,12748
2022-11-06T10:14:20.132Z,11940
2022-11-06T10:15:20.457Z,12864
2022-11-06T10:16:20.656Z,12720
2022-11-06T10:17:21.574Z,12700
2022-11-06T10:18:23.546Z,12352
2022-11-06T10:19:23.469Z,11852
2022-11-06T10:20:32.514Z,12168
2022-11-06T10:21:24.547Z,12180
2022-11-06T10:22:24.297Z,12108
2022-11-06T10:23:25.814Z,11940
2022-11-06T10:24:26.037Z,11816
2022-11-06T10:25:25.774Z,11768
2022-11-06T10:26:30.001Z,11348
2022-11-06T10:27:26.874Z,12176
2022-11-06T10:28:28.004Z,12144
2022-11-06T10:29:28.220Z,10520
2022-11-06T10:30:28.879Z,9560
2022-11-06T10:31:29.799Z,9760
2022-11-06T10:32:30.777Z,9824
2022-11-06T10:33:31.712Z,7840
2022-11-06T10:34:33.213Z,10936
2022-11-06T10:35:33.540Z,11200
2022-11-06T10:36:34.218Z,10552
2022-11-06T10:37:35.164Z,10648
2022-11-06T10:38:35.244Z,10680
2022-11-06T10:39:35.897Z,10608
2022-11-06T10:40:36.525Z,8692
2022-11-06T10:41:36.905Z,8840
2022-11-06T10:42:44.189Z,8752
2022-11-06T10:43:38.149Z,9092
2022-11-06T10:44:39.097Z,9072
2022-11-06T10:45:39.517Z,8400
2022-11-06T10:46:40.443Z,7492
2022-11-06T10:47:41.640Z,9012
2022-11-06T10:48:47.745Z,8804
2022-11-06T10:49:42.235Z,8296
2022-11-06T10:50:42.177Z,8568
2022-11-06T10:51:42.506Z,7340
2022-11-06T10:52:43.407Z,7788
2022-11-06T10:53:43.307Z,8104
2022-11-06T10:54:44.214Z,7992
2022-11-06T10:55:44.676Z,8300
2022-11-06T10:56:45.917Z,7876
2022-11-06T10:57:45.966Z,8344
2022-11-06T10:58:47.055Z,8916
2022-11-06T10:59:47.378Z,8600
2022-11-06T11:00:47.767Z,7212
2022-11-06T11:01:48.560Z,7476
2022-11-06T11:02:48.656Z,6392
2022-11-06T11:03:49.149Z,6792
2022-11-06T11:04:48.769Z,8272
2022-11-06T11:05:49.819Z,8748
2022-11-06T11:06:50.351Z,9168
2022-11-06T11:07:50.574Z,8220
2022-11-06T11:08:51.895Z,7904
2022-11-06T11:09:51.230Z,6280
2022-11-06T11:11:11.104Z,4820
2022-11-06T11:11:53.045Z,4856
2022-11-06T11:12:53.342Z,5788
2022-11-06T11:13:53.477Z,5492
2022-11-06T11:14:53.706Z,5528
2022-11-06T11:15:54.729Z,6952
2022-11-06T11:16:55.379Z,6548
2022-11-06T11:17:56.613Z,4724
2022-11-06T11:18:56.556Z,3724
2022-11-06T11:19:57.757Z,3568
2022-11-06T11:20:57.683Z,4164
2022-11-06T11:21:58.730Z,4452
2022-11-06T11:23:00.170Z,4440
2022-11-06T11:24:00.186Z,4820
2022-11-06T11:25:01.416Z,5284
2022-11-06T11:26:01.862Z,4972
2022-11-06T11:27:02.920Z,4476
2022-11-06T11:28:10.389Z,4832
2022-11-06T11:29:04.568Z,5904
2022-11-06T11:30:04.798Z,5920
2022-11-06T11:31:05.714Z,5740
2022-11-06T11:32:06.610Z,6312
2022-11-06T11:33:07.522Z,6832
2022-11-06T11:34:07.170Z,7548
2022-11-06T11:35:08.469Z,7196
2022-11-06T11:36:08.792Z,6280
2022-11-06T11:37:09.042Z,6360
2022-11-06T11:38:09.246Z,5652
2022-11-06T11:39:09.712Z,5548
2022-11-06T11:40:18.964Z,5504
2022-11-06T11:41:11.905Z,4980
2022-11-06T11:42:12.426Z,5388
2022-11-06T11:43:12.332Z,5804
2022-11-06T11:44:13.838Z,5936
2022-11-06T11:45:13.851Z,5468
2022-11-06T11:46:14.860Z,6956
2022-11-06T11:47:20.228Z,6600
2022-11-06T11:48:15.860Z,7120
2022-11-06T11:49:15.804Z,6688
2022-11-06T11:50:16.408Z,5960
2022-11-06T11:51:17.609Z,5716
2022-11-06T11:52:17.811Z,5464
2022-11-06T11:53:21.570Z,5764
2022-11-06T11:54:18.190Z,4168
2022-11-06T11:55:18.845Z,4276
2022-11-06T11:56:31.156Z,4308
2022-11-06T11:57:30.043Z,4172
2022-11-06T11:58:30.054Z,4472
2022-11-06T11:59:29.996Z,5164
2022-11-06T12:00:31.026Z,5844
2022-11-06T12:01:31.851Z,5744
2022-11-06T12:02:39.169Z,5728
2022-11-06T12:03:33.446Z,5508
2022-11-06T12:04:34.092Z,5684
2022-11-06T12:05:35.312Z,5116
2022-11-06T12:06:35.764Z,5048
2022-11-06T12:07:37.477Z,5024
2022-11-06T12:08:37.453Z,4736
2022-11-06T12:09:37.669Z,4756
2022-11-06T12:10:37.594Z,4720
2022-11-06T12:11:37.951Z,4356
2022-11-06T12:12:39.192Z,4392
2022-11-06T12:13:39.684Z,4716
2022-11-06T12:14:39.756Z,5180
2022-11-06T12:15:40.381Z,5392
2022-11-06T12:16:41.238Z,5744
2022-11-06T12:17:41.870Z,5632
2022-11-06T12:18:42.769Z,4788
2022-11-06T12:19:43.695Z,4396
2022-11-06T12:20:43.911Z,4552
2022-11-06T12:21:43.811Z,4104
2022-11-06T12:22:44.118Z,3960
2022-11-06T12:23:44.080Z,4524
2022-11-06T12:24:44.400Z,4448
2022-11-06T12:25:45.895Z,3908
2022-11-06T12:26:46.038Z,3700
2022-11-06T12:27:47.393Z,3488
2022-11-06T12:28:47.395Z,3716
2022-11-06T12:29:47.724Z,3872
2022-11-06T12:30:47.654Z,3648
2022-11-06T12:31:47.983Z,3224
2022-11-06T12:32:49.483Z,3372
2022-11-06T12:34:23.096Z,3444
2022-11-06T12:34:50.015Z,3836
2022-11-06T12:35:51.216Z,4120
2022-11-06T12:36:51.644Z,3684
2022-11-06T12:37:52.853Z,3428
2022-11-06T12:38:53.476Z,3832
2022-11-06T12:39:53.676Z,3936
2022-11-06T12:40:54.302Z,4016
2022-11-06T12:41:54.730Z,4528
2022-11-06T12:42:55.687Z,4984
2022-11-06T12:43:56.604Z,5004
2022-11-06T12:44:57.261Z,4964
2022-11-06T12:45:58.193Z,4828
2022-11-06T12:46:58.360Z,4524
2022-11-06T12:47:59.560Z,4016
2022-11-06T12:48:59.487Z,3676
2022-11-06T12:49:59.412Z,4144
2022-11-06T12:51:00.643Z,4872
2022-11-06T12:52:00.564Z,5296
2022-11-06T12:53:06.011Z,4952
2022-11-06T12:54:02.504Z,4952
2022-11-06T12:55:03.127Z,4444
2022-11-06T12:56:03.494Z,4404
2022-11-06T12:57:04.608Z,4128
2022-11-06T12:58:05.543Z,4692
2022-11-06T12:59:05.788Z,4172
2022-11-06T13:00:07.020Z,3968
2022-11-06T13:01:07.675Z,3728
2022-11-06T13:02:08.931Z,4028
2022-11-06T13:03:08.395Z,4476
2022-11-06T13:04:09.024Z,4760
2022-11-06T13:05:10.206Z,4544
2022-11-06T13:06:18.647Z,4264
2022-11-06T13:07:10.658Z,4308
2022-11-06T13:08:11.443Z,4356
2022-11-06T13:09:11.220Z,4032
2022-11-06T13:10:12.497Z,4104
2022-11-06T13:11:12.711Z,4516
2022-11-06T13:12:13.073Z,4276
2022-11-06T13:13:21.013Z,4456
2022-11-06T13:14:14.919Z,4544
2022-11-06T13:15:16.430Z,4516
2022-11-06T13:16:16.930Z,4360
2022-11-06T13:17:17.311Z,4216
2022-11-06T13:18:18.497Z,3960
2022-11-06T13:19:17.813Z,4188
2022-11-06T13:20:19.440Z,4180
2022-11-06T13:21:20.060Z,4080
2022-11-06T13:22:19.967Z,4240
2022-11-06T13:23:21.159Z,4028
2022-11-06T13:24:21.080Z,4096
2022-11-06T13:25:22.297Z,4060
2022-11-06T13:26:22.497Z,4164
2022-11-06T13:27:23.476Z,4504
2022-11-06T13:28:25.317Z,4348
2022-11-06T13:29:24.529Z,4172
2022-11-06T13:30:25.831Z,4492
2022-11-06T13:31:26.339Z,4288
2022-11-06T13:32:26.541Z,3660
2022-11-06T13:33:26.739Z,4232
2022-11-06T13:34:27.636Z,4648
2022-11-06T13:35:28.533Z,4928
2022-11-06T13:36:29.022Z,4976
2022-11-06T13:37:30.108Z,4936
2022-11-06T13:38:29.730Z,4880
2022-11-06T13:39:31.119Z,4464
2022-11-06T13:40:31.619Z,4640
2022-11-06T13:41:32.549Z,4500
2022-11-06T13:42:32.469Z,4584
2022-11-06T13:43:33.726Z,4724
2022-11-06T13:44:34.231Z,4712
2022-11-06T13:45:33.871Z,4564
2022-11-06T13:46:35.081Z,4380
2022-11-06T13:47:35.520Z,3824
2022-11-06T13:48:42.777Z,4012
2022-11-06T13:49:35.676Z,3904
2022-11-06T13:50:36.577Z,3716
2022-11-06T13:51:37.794Z,3940
2022-11-06T13:52:37.716Z,3784
2022-11-06T13:53:38.216Z,4168
2022-11-06T13:54:38.422Z,3876
2022-11-06T13:55:39.764Z,3648
2022-11-06T13:56:39.775Z,3292
2022-11-06T13:57:40.778Z,3020
2022-11-06T13:58:42.034Z,2756
2022-11-06T13:59:45.252Z,2876
2022-11-06T14:00:43.308Z,3424
2022-11-06T14:01:44.174Z,3528
2022-11-06T14:02:44.870Z,3504
2022-11-06T14:03:45.458Z,3496